createdAt,value
2023-10-17T00:00:16.350Z,109.339879
2023-10-17T00:05:17.476Z,99.039245
2023-10-17T00:10:16.301Z,138.042808
2023-10-17T00:15:17.038Z,151.211172
2023-10-17T00:20:16.180Z,84.425460
2023-10-17T00:25:16.342Z,61.131412
2023-10-17T00:30:16.198Z,63.484887
2023-10-17T00:35:15.989Z,51.122535
2023-10-17T00:40:16.695Z,55.748063
2023-10-17T00:45:15.986Z,41.050872
2023-10-17T00:50:15.883Z,26.761484
2023-10-17T00:55:15.874Z,27.885286
2023-10-17T01:00:15.944Z,21.753416
2023-10-17T01:05:15.880Z,11.093562
2023-10-17T01:10:15.845Z,4.969973
2023-10-17T01:15:15.867Z,2.903260
2023-10-17T01:20:16.196Z,0.239666
2023-10-17T01:25:15.806Z,0.002278
2023-10-17T01:30:15.815Z,0.000000
2023-10-17T01:35:16.814Z,0.000000
2023-10-17T01:40:16.107Z,0.000000
2023-10-17T01:45:16.621Z,0.000000
2023-10-17T01:50:16.993Z,0.000000
2023-10-17T01:55:17.049Z,0.000000
2023-10-17T02:00:16.761Z,0.000000
2023-10-17T02:05:17.010Z,0.000000
2023-10-17T02:10:16.613Z,0.000000
2023-10-17T02:15:16.604Z,0.000000
2023-10-17T02:20:18.372Z,0.000000
2023-10-17T02:25:16.613Z,0.000000
2023-10-17T02:30:18.314Z,0.000000
2023-10-17T02:35:15.939Z,0.000000
2023-10-17T02:40:16.715Z,0.000000
2023-10-17T02:45:16.616Z,0.000000
2023-10-17T02:50:16.434Z,0.000000
2023-10-17T02:55:15.964Z,0.000000
2023-10-17T03:00:15.889Z,0.000000
2023-10-17T03:05:16.104Z,0.000000
2023-10-17T03:10:16.025Z,0.000000
2023-10-17T03:15:16.246Z,0.000000
2023-10-17T03:20:16.386Z,0.000000
2023-10-17T03:25:16.020Z,0.000000
2023-10-17T03:30:16.275Z,0.000000
2023-10-17T03:35:16.531Z,0.000000
2023-10-17T03:40:16.233Z,0.000000
2023-10-17T03:45:16.752Z,0.000000
2023-10-17T03:50:16.878Z,0.000000
2023-10-17T03:55:16.351Z,0.000000
2023-10-17T04:00:16.378Z,0.000000
2023-10-17T04:05:15.869Z,0.000000
2023-10-17T04:10:16.163Z,0.000000
2023-10-17T04:15:16.823Z,0.000000
2023-10-17T04:20:15.819Z,0.000000
2023-10-17T04:25:17.464Z,0.000000
2023-10-17T04:30:16.241Z,0.000000
2023-10-17T04:35:15.863Z,0.000000
2023-10-17T04:40:15.947Z,0.000000
2023-10-17T04:45:15.963Z,0.000000
2023-10-17T04:50:16.414Z,0.000000
2023-10-17T04:55:16.309Z,0.000000
2023-10-17T05:00:15.992Z,0.000000
2023-10-17T05:05:16.211Z,0.000000
2023-10-17T05:10:16.116Z,0.000000
2023-10-17T05:15:16.521Z,0.000000
2023-10-17T05:20:15.856Z,0.000000
2023-10-17T05:25:15.901Z,0.000000
2023-10-17T05:30:16.976Z,0.000000
2023-10-17T05:35:16.394Z,0.000000
2023-10-17T05:40:16.184Z,0.000000
2023-10-17T05:45:16.719Z,0.000000
2023-10-17T05:50:16.643Z,0.000000
2023-10-17T05:55:29.828Z,0.000000
2023-10-17T06:00:16.068Z,0.000000
2023-10-17T06:05:17.023Z,0.000000
2023-10-17T06:10:16.502Z,0.000000
2023-10-17T06:15:16.732Z,0.000000
2023-10-17T06:20:16.749Z,0.000000
2023-10-17T06:25:15.983Z,0.000000
2023-10-17T06:30:16.083Z,0.000000
2023-10-17T06:35:16.132Z,0.000000
2023-10-17T06:40:15.786Z,0.000000
2023-10-17T06:45:16.826Z,0.000000
2023-10-17T06:50:16.126Z,0.000000
2023-10-17T06:55:15.950Z,0.000000
2023-10-17T07:00:16.974Z,0.000000
2023-10-17T07:05:16.250Z,0.000000
2023-10-17T07:10:16.355Z,0.000000
2023-10-17T07:15:15.808Z,0.000000
2023-10-17T07:20:16.784Z,0.000000
2023-10-17T07:25:16.043Z,0.000000
2023-10-17T07:30:15.909Z,0.000000
2023-10-17T07:35:16.300Z,0.000000
2023-10-17T07:40:16.989Z,0.000000
2023-10-17T07:45:16.041Z,0.000000
2023-10-17T07:50:16.156Z,0.000000
2023-10-17T07:55:15.762Z,0.000000
2023-10-17T08:00:15.918Z,0.000000
2023-10-17T08:05:16.418Z,0.000000
2023-10-17T08:10:16.752Z,0.000000
2023-10-17T08:15:16.216Z,0.000000
2023-10-17T08:20:16.315Z,0.000000
2023-10-17T08:25:16.615Z,0.000000
2023-10-17T08:30:23.811Z,0.000000
2023-10-17T08:35:16.299Z,0.000000
2023-10-17T08:40:16.117Z,0.000000
2023-10-17T08:45:16.428Z,0.000000
2023-10-17T08:50:16.245Z,0.000000
2023-10-17T08:55:16.634Z,0.000000
2023-10-17T09:00:17.416Z,0.000000
2023-10-17T09:05:16.997Z,0.000000
2023-10-17T09:10:16.085Z,0.000000
2023-10-17T09:15:16.297Z,0.000000
2023-10-17T09:20:16.325Z,0.000000
2023-10-17T09:25:16.778Z,0.000000
2023-10-17T09:30:17.188Z,0.000000
2023-10-17T09:35:15.957Z,0.000000
2023-10-17T09:40:16.969Z,0.000000
2023-10-17T09:45:32.636Z,0.000000
2023-10-17T09:50:16.444Z,0.000000
2023-10-17T09:55:16.278Z,0.000000
2023-10-17T10:00:16.134Z,0.000000
2023-10-17T10:05:16.300Z,0.000000
2023-10-17T10:10:15.848Z,0.000000
2023-10-17T10:15:16.069Z,0.000000
2023-10-17T10:20:15.955Z,0.000000
2023-10-17T10:25:16.279Z,0.000000
2023-10-17T10:30:16.534Z,0.000000
2023-10-17T10:35:18.078Z,0.000000
2023-10-17T10:40:16.019Z,0.000000
2023-10-17T10:45:15.932Z,0.000000
2023-10-17T10:50:16.725Z,0.000000
2023-10-17T10:55:16.725Z,0.000000
2023-10-17T11:00:16.546Z,0.000000
2023-10-17T11:05:16.605Z,0.000000
2023-10-17T11:10:16.436Z,0.000000
2023-10-17T11:15:17.190Z,0.000000
2023-10-17T11:20:15.793Z,0.000000
2023-10-17T11:25:16.673Z,0.000000
2023-10-17T11:30:16.034Z,0.000000
2023-10-17T11:35:16.140Z,0.000000
2023-10-17T11:40:16.054Z,0.000000
2023-10-17T11:45:31.921Z,0.000000
2023-10-17T11:50:16.283Z,0.000000
2023-10-17T11:55:16.610Z,0.000000
2023-10-17T12:00:16.000Z,0.000000
2023-10-17T12:05:16.602Z,0.000000
2023-10-17T12:10:16.180Z,0.000000
2023-10-17T12:15:16.905Z,0.000000
2023-10-17T12:20:16.176Z,0.000000
2023-10-17T12:25:16.677Z,0.000000
2023-10-17T12:30:16.530Z,0.000000
2023-10-17T12:35:16.175Z,0.000000
2023-10-17T12:40:16.945Z,0.000000
2023-10-17T12:45:16.653Z,0.000000
2023-10-17T12:50:15.982Z,0.000000
2023-10-17T12:55:16.571Z,0.000000
2023-10-17T13:00:16.152Z,0.000000
2023-10-17T13:05:16.191Z,0.000000
2023-10-17T13:10:16.718Z,0.000000
2023-10-17T13:15:16.736Z,0.000000
2023-10-17T13:20:24.823Z,0.000000
2023-10-17T13:25:15.982Z,0.000000
2023-10-17T13:30:16.829Z,0.000000
2023-10-17T13:35:16.120Z,0.000000
2023-10-17T13:40:16.766Z,0.000000
2023-10-17T13:45:16.848Z,0.000000
2023-10-17T13:50:16.229Z,0.000000
2023-10-17T13:55:17.400Z,0.000000
2023-10-17T14:00:16.172Z,0.000000
2023-10-17T14:05:16.260Z,0.000000
2023-10-17T14:10:16.152Z,0.000000
2023-10-17T14:15:16.899Z,0.000000
2023-10-17T14:20:15.965Z,0.000000
2023-10-17T14:25:16.564Z,0.000000
2023-10-17T14:30:16.260Z,0.000000
2023-10-17T14:35:16.109Z,0.000000
2023-10-17T14:40:16.069Z,0.094373
2023-10-17T14:45:15.827Z,2.852992
2023-10-17T14:50:16.025Z,9.028328
2023-10-17T14:55:16.129Z,12.062649
2023-10-17T15:00:16.029Z,14.997753
2023-10-17T15:05:16.191Z,24.023218
2023-10-17T15:10:16.521Z,32.778964
2023-10-17T15:15:16.009Z,45.660304
2023-10-17T15:20:16.399Z,53.884091
2023-10-17T15:25:15.946Z,38.744757
2023-10-17T15:30:30.330Z,56.885592
2023-10-17T15:35:16.181Z,62.694243
2023-10-17T15:40:15.961Z,48.407801
2023-10-17T15:45:15.995Z,62.627180
2023-10-17T15:50:15.890Z,78.037139
2023-10-17T15:55:16.830Z,115.621524
2023-10-17T16:00:16.320Z,169.456707
2023-10-17T16:05:16.304Z,148.973850
2023-10-17T16:10:16.262Z,124.063410
2023-10-17T16:15:15.892Z,104.396466
2023-10-17T16:20:15.920Z,99.104586
2023-10-17T16:25:16.103Z,100.722250
2023-10-17T16:30:16.043Z,101.941555
2023-10-17T16:35:15.776Z,101.956971
2023-10-17T16:40:15.849Z,110.286887
2023-10-17T16:45:16.409Z,123.987830
2023-10-17T16:50:16.747Z,145.971298
2023-10-17T16:55:15.924Z,225.566611
2023-10-17T17:00:15.836Z,291.922037
2023-10-17T17:05:17.019Z,261.079995
2023-10-17T17:10:16.311Z,234.994055
2023-10-17T17:15:16.356Z,159.112890
2023-10-17T17:20:16.233Z,130.316522
2023-10-17T17:25:16.025Z,125.850498
2023-10-17T17:30:15.985Z,149.242350
2023-10-17T17:35:16.750Z,186.326588
2023-10-17T17:40:16.490Z,225.131370
2023-10-17T17:45:15.819Z,202.321863
2023-10-17T17:50:15.760Z,181.687661
2023-10-17T17:55:16.280Z,167.556289
2023-10-17T18:00:16.198Z,154.294789
2023-10-17T18:05:16.433Z,214.415715
2023-10-17T18:10:16.430Z,334.385067
2023-10-17T18:15:16.739Z,263.140479
2023-10-17T18:20:16.009Z,285.692733
2023-10-17T18:25:16.570Z,262.006255
2023-10-17T18:30:15.676Z,184.821347
2023-10-17T18:35:16.218Z,148.518425
2023-10-17T18:40:16.883Z,128.708243
2023-10-17T18:45:16.764Z,123.367788
2023-10-17T18:50:16.832Z,128.736908
2023-10-17T18:55:16.202Z,164.542314
2023-10-17T19:00:17.173Z,195.816998
2023-10-17T19:05:16.226Z,240.753703
2023-10-17T19:10:16.507Z,229.181294
2023-10-17T19:15:17.035Z,221.807925
2023-10-17T19:20:16.161Z,205.603776
2023-10-17T19:25:16.327Z,237.945327
2023-10-17T19:30:16.111Z,288.930080
2023-10-17T19:35:16.019Z,241.628478
2023-10-17T19:40:16.234Z,264.230229
2023-10-17T19:45:16.668Z,273.615561
2023-10-17T19:50:16.820Z,310.717503
2023-10-17T19:55:17.050Z,319.768311
2023-10-17T20:00:16.317Z,231.379157
2023-10-17T20:05:15.868Z,264.393411
2023-10-17T20:10:15.872Z,212.580778
2023-10-17T20:15:15.981Z,160.481657
2023-10-17T20:20:16.082Z,111.396374
2023-10-17T20:25:17.385Z,115.651826
2023-10-17T20:30:15.944Z,155.640998
2023-10-17T20:35:16.528Z,187.815515
2023-10-17T20:40:17.444Z,219.978491
2023-10-17T20:45:16.629Z,213.307107
2023-10-17T20:50:16.679Z,152.446239
2023-10-17T20:55:16.094Z,123.047217
2023-10-17T21:00:16.203Z,113.074986
2023-10-17T21:05:16.033Z,81.687757
2023-10-17T21:10:15.975Z,67.932708
2023-10-17T21:15:15.841Z,57.328932
2023-10-17T21:20:16.076Z,45.174875
2023-10-17T21:25:15.850Z,49.528995
2023-10-17T21:30:16.245Z,49.206068
2023-10-17T21:35:17.406Z,50.190812
2023-10-17T21:40:16.689Z,58.924298
2023-10-17T21:45:16.076Z,62.815723
2023-10-17T21:50:16.576Z,60.944460
2023-10-17T21:55:16.050Z,53.336074
2023-10-17T22:00:16.819Z,60.647620
2023-10-17T22:05:16.231Z,51.694364
2023-10-17T22:10:16.583Z,40.911147
2023-10-17T22:15:16.647Z,44.108143
2023-10-17T22:20:16.720Z,43.942548
2023-10-17T22:25:16.106Z,47.605380
2023-10-17T22:30:16.066Z,45.383203
2023-10-17T22:35:17.222Z,47.200814
2023-10-17T22:40:17.240Z,40.765538
2023-10-17T22:45:16.266Z,32.690795
2023-10-17T22:50:16.120Z,29.229337
2023-10-17T22:55:15.855Z,27.577331
2023-10-17T23:00:16.456Z,31.363757
2023-10-17T23:05:16.283Z,29.987795
2023-10-17T23:10:16.165Z,27.928442
2023-10-17T23:15:16.598Z,24.545188
2023-10-17T23:20:15.995Z,21.062497
2023-10-17T23:25:16.375Z,17.481667
2023-10-17T23:30:16.640Z,16.245471
2023-10-17T23:35:16.945Z,18.041266
2023-10-17T23:40:16.826Z,19.960259
2023-10-17T23:45:17.375Z,24.556119
2023-10-17T23:50:17.382Z,27.342011
2023-10-17T23:55:16.435Z,39.510462
